sensor_id;sensor_type;location;lat;lon;timestamp;P1;durP1;ratioP1;P2;durP2;ratioP2
77061;SDS011;65989;51.686;5.138;2024-01-30T00:02:09;11.47;;;7.10;;
77061;SDS011;65989;51.686;5.138;2024-01-30T00:04:34;15.00;;;8.60;;
77061;SDS011;65989;51.686;5.138;2024-01-30T00:07:00;17.77;;;8.30;;
77061;SDS011;65989;51.686;5.138;2024-01-30T00:09:25;15.97;;;8.47;;
77061;SDS011;65989;51.686;5.138;2024-01-30T00:11:51;15.67;;;8.97;;
77061;SDS011;65989;51.686;5.138;2024-01-30T00:14:16;14.33;;;8.23;;
77061;SDS011;65989;51.686;5.138;2024-01-30T00:16:41;13.53;;;8.13;;
77061;SDS011;65989;51.686;5.138;2024-01-30T00:19:07;14.23;;;8.07;;
77061;SDS011;65989;51.686;5.138;2024-01-30T00:21:33;16.45;;;8.60;;
77061;SDS011;65989;51.686;5.138;2024-01-30T00:23:58;13.23;;;8.30;;
77061;SDS011;65989;51.686;5.138;2024-01-30T00:26:24;14.77;;;8.63;;
77061;SDS011;65989;51.686;5.138;2024-01-30T00:28:49;14.90;;;8.23;;
77061;SDS011;65989;51.686;5.138;2024-01-30T00:31:15;14.63;;;9.03;;
77061;SDS011;65989;51.686;5.138;2024-01-30T00:33:40;16.67;;;8.67;;
77061;SDS011;65989;51.686;5.138;2024-01-30T00:36:07;17.10;;;9.50;;
77061;SDS011;65989;51.686;5.138;2024-01-30T00:38:33;16.70;;;9.25;;
77061;SDS011;65989;51.686;5.138;2024-01-30T00:40:58;20.20;;;9.47;;
77061;SDS011;65989;51.686;5.138;2024-01-30T00:43:24;16.60;;;9.00;;
77061;SDS011;65989;51.686;5.138;2024-01-30T00:45:52;16.10;;;9.18;;
77061;SDS011;65989;51.686;5.138;2024-01-30T00:48:18;17.60;;;9.37;;
77061;SDS011;65989;51.686;5.138;2024-01-30T00:50:44;17.83;;;9.77;;
77061;SDS011;65989;51.686;5.138;2024-01-30T00:53:09;15.97;;;9.20;;
77061;SDS011;65989;51.686;5.138;2024-01-30T00:55:35;15.37;;;9.27;;
77061;SDS011;65989;51.686;5.138;2024-01-30T00:58:00;16.17;;;10.13;;
77061;SDS011;65989;51.686;5.138;2024-01-30T01:00:26;16.00;;;9.40;;
77061;SDS011;65989;51.686;5.138;2024-01-30T01:02:54;19.08;;;10.05;;
77061;SDS011;65989;51.686;5.138;2024-01-30T01:05:20;17.67;;;9.35;;
77061;SDS011;65989;51.686;5.138;2024-01-30T01:07:45;16.13;;;8.87;;
77061;SDS011;65989;51.686;5.138;2024-01-30T01:10:12;15.50;;;9.00;;
77061;SDS011;65989;51.686;5.138;2024-01-30T01:12:38;13.23;;;8.35;;
77061;SDS011;65989;51.686;5.138;2024-01-30T01:15:04;16.37;;;9.40;;
77061;SDS011;65989;51.686;5.138;2024-01-30T01:17:30;14.23;;;8.77;;
77061;SDS011;65989;51.686;5.138;2024-01-30T01:19:56;20.63;;;9.80;;
77061;SDS011;65989;51.686;5.138;2024-01-30T01:22:22;15.13;;;9.25;;
77061;SDS011;65989;51.686;5.138;2024-01-30T01:24:47;16.03;;;9.73;;
77061;SDS011;65989;51.686;5.138;2024-01-30T01:27:13;19.83;;;9.97;;
77061;SDS011;65989;51.686;5.138;2024-01-30T01:29:38;18.40;;;9.60;;
77061;SDS011;65989;51.686;5.138;2024-01-30T01:32:04;16.90;;;9.73;;
77061;SDS011;65989;51.686;5.138;2024-01-30T01:34:29;17.50;;;10.45;;
77061;SDS011;65989;51.686;5.138;2024-01-30T01:36:55;16.97;;;9.53;;
77061;SDS011;65989;51.686;5.138;2024-01-30T01:39:21;17.10;;;9.67;;
77061;SDS011;65989;51.686;5.138;2024-01-30T01:41:48;18.15;;;9.35;;
77061;SDS011;65989;51.686;5.138;2024-01-30T01:44:14;16.10;;;9.03;;
77061;SDS011;65989;51.686;5.138;2024-01-30T01:46:39;14.97;;;9.47;;
77061;SDS011;65989;51.686;5.138;2024-01-30T01:49:05;18.17;;;9.80;;
77061;SDS011;65989;51.686;5.138;2024-01-30T01:51:31;16.87;;;9.30;;
77061;SDS011;65989;51.686;5.138;2024-01-30T01:54:01;16.33;;;9.38;;
77061;SDS011;65989;51.686;5.138;2024-01-30T01:56:29;18.95;;;9.32;;
77061;SDS011;65989;51.686;5.138;2024-01-30T01:58:56;17.55;;;9.48;;
77061;SDS011;65989;51.686;5.138;2024-01-30T02:01:25;15.45;;;9.35;;
77061;SDS011;65989;51.686;5.138;2024-01-30T02:03:52;17.27;;;9.93;;
77061;SDS011;65989;51.686;5.138;2024-01-30T02:06:18;18.17;;;9.43;;
77061;SDS011;65989;51.686;5.138;2024-01-30T02:08:44;17.42;;;9.43;;
77061;SDS011;65989;51.686;5.138;2024-01-30T02:11:09;14.93;;;9.20;;
77061;SDS011;65989;51.686;5.138;2024-01-30T02:13:36;14.52;;;9.48;;
77061;SDS011;65989;51.686;5.138;2024-01-30T02:16:02;16.98;;;9.55;;
77061;SDS011;65989;51.686;5.138;2024-01-30T02:18:27;17.03;;;9.90;;
77061;SDS011;65989;51.686;5.138;2024-01-30T02:20:53;16.70;;;9.40;;
77061;SDS011;65989;51.686;5.138;2024-01-30T02:23:21;15.25;;;9.10;;
77061;SDS011;65989;51.686;5.138;2024-01-30T02:25:49;15.07;;;9.40;;
77061;SDS011;65989;51.686;5.138;2024-01-30T02:28:15;15.07;;;8.80;;
77061;SDS011;65989;51.686;5.138;2024-01-30T02:30:42;15.23;;;8.90;;
77061;SDS011;65989;51.686;5.138;2024-01-30T02:33:08;17.80;;;9.30;;
77061;SDS011;65989;51.686;5.138;2024-01-30T02:35:33;17.77;;;9.53;;
77061;SDS011;65989;51.686;5.138;2024-01-30T02:37:59;18.23;;;9.77;;
77061;SDS011;65989;51.686;5.138;2024-01-30T02:40:24;15.30;;;8.87;;
77061;SDS011;65989;51.686;5.138;2024-01-30T02:42:50;15.75;;;9.35;;
77061;SDS011;65989;51.686;5.138;2024-01-30T02:45:16;17.80;;;9.10;;
77061;SDS011;65989;51.686;5.138;2024-01-30T02:47:41;15.48;;;8.93;;
77061;SDS011;65989;51.686;5.138;2024-01-30T02:50:07;14.70;;;8.53;;
77061;SDS011;65989;51.686;5.138;2024-01-30T02:52:33;14.73;;;8.47;;
77061;SDS011;65989;51.686;5.138;2024-01-30T02:54:58;18.40;;;9.00;;
77061;SDS011;65989;51.686;5.138;2024-01-30T02:57:24;17.40;;;10.17;;
77061;SDS011;65989;51.686;5.138;2024-01-30T02:59:49;16.85;;;9.50;;
77061;SDS011;65989;51.686;5.138;2024-01-30T03:02:15;19.03;;;9.20;;
77061;SDS011;65989;51.686;5.138;2024-01-30T03:04:40;14.80;;;8.80;;
77061;SDS011;65989;51.686;5.138;2024-01-30T03:07:06;16.25;;;8.82;;
77061;SDS011;65989;51.686;5.138;2024-01-30T03:09:31;17.07;;;8.87;;
77061;SDS011;65989;51.686;5.138;2024-01-30T03:11:57;17.47;;;8.67;;
77061;SDS011;65989;51.686;5.138;2024-01-30T03:14:22;14.47;;;8.97;;
77061;SDS011;65989;51.686;5.138;2024-01-30T03:16:48;13.40;;;7.93;;
77061;SDS011;65989;51.686;5.138;2024-01-30T03:19:13;14.70;;;8.40;;
77061;SDS011;65989;51.686;5.138;2024-01-30T03:21:38;14.13;;;8.43;;
77061;SDS011;65989;51.686;5.138;2024-01-30T03:24:04;14.73;;;7.77;;
77061;SDS011;65989;51.686;5.138;2024-01-30T03:26:29;14.68;;;8.27;;
77061;SDS011;65989;51.686;5.138;2024-01-30T03:28:55;14.63;;;8.03;;
77061;SDS011;65989;51.686;5.138;2024-01-30T03:31:20;17.77;;;8.77;;
77061;SDS011;65989;51.686;5.138;2024-01-30T03:33:46;13.30;;;8.03;;
77061;SDS011;65989;51.686;5.138;2024-01-30T03:36:11;12.57;;;7.97;;
77061;SDS011;65989;51.686;5.138;2024-01-30T03:38:36;16.77;;;8.65;;
77061;SDS011;65989;51.686;5.138;2024-01-30T03:41:02;15.27;;;8.43;;
77061;SDS011;65989;51.686;5.138;2024-01-30T03:43:27;16.27;;;8.20;;
77061;SDS011;65989;51.686;5.138;2024-01-30T03:45:53;11.70;;;7.67;;
77061;SDS011;65989;51.686;5.138;2024-01-30T03:48:18;11.77;;;7.60;;
77061;SDS011;65989;51.686;5.138;2024-01-30T03:50:45;15.03;;;7.67;;
77061;SDS011;65989;51.686;5.138;2024-01-30T03:53:10;12.53;;;7.33;;
77061;SDS011;65989;51.686;5.138;2024-01-30T03:55:35;13.07;;;7.60;;
77061;SDS011;65989;51.686;5.138;2024-01-30T03:58:01;15.20;;;7.97;;
77061;SDS011;65989;51.686;5.138;2024-01-30T04:00:26;14.67;;;7.73;;
77061;SDS011;65989;51.686;5.138;2024-01-30T04:02:52;14.60;;;7.43;;
77061;SDS011;65989;51.686;5.138;2024-01-30T04:05:17;13.65;;;7.57;;
77061;SDS011;65989;51.686;5.138;2024-01-30T04:07:42;13.53;;;7.83;;
77061;SDS011;65989;51.686;5.138;2024-01-30T04:10:09;14.07;;;7.80;;
77061;SDS011;65989;51.686;5.138;2024-01-30T04:12:35;12.30;;;7.53;;
77061;SDS011;65989;51.686;5.138;2024-01-30T04:15:01;13.63;;;7.45;;
77061;SDS011;65989;51.686;5.138;2024-01-30T04:17:27;16.17;;;7.17;;
77061;SDS011;65989;51.686;5.138;2024-01-30T04:19:54;14.18;;;7.30;;
77061;SDS011;65989;51.686;5.138;2024-01-30T04:22:19;14.15;;;7.60;;
77061;SDS011;65989;51.686;5.138;2024-01-30T04:24:45;11.77;;;6.77;;
77061;SDS011;65989;51.686;5.138;2024-01-30T04:27:10;12.17;;;7.73;;
77061;SDS011;65989;51.686;5.138;2024-01-30T04:29:37;16.00;;;7.95;;
77061;SDS011;65989;51.686;5.138;2024-01-30T04:32:02;14.10;;;7.00;;
77061;SDS011;65989;51.686;5.138;2024-01-30T04:34:28;12.90;;;6.90;;
77061;SDS011;65989;51.686;5.138;2024-01-30T04:36:53;13.70;;;7.30;;
77061;SDS011;65989;51.686;5.138;2024-01-30T04:39:18;16.27;;;6.87;;
77061;SDS011;65989;51.686;5.138;2024-01-30T04:41:44;15.60;;;7.60;;
77061;SDS011;65989;51.686;5.138;2024-01-30T04:44:09;13.30;;;6.67;;
77061;SDS011;65989;51.686;5.138;2024-01-30T04:46:34;11.77;;;6.80;;
77061;SDS011;65989;51.686;5.138;2024-01-30T04:49:00;12.33;;;6.03;;
77061;SDS011;65989;51.686;5.138;2024-01-30T04:51:25;12.47;;;6.73;;
77061;SDS011;65989;51.686;5.138;2024-01-30T04:53:50;13.97;;;7.23;;
77061;SDS011;65989;51.686;5.138;2024-01-30T04:56:16;13.90;;;6.87;;
77061;SDS011;65989;51.686;5.138;2024-01-30T04:58:42;11.88;;;6.22;;
77061;SDS011;65989;51.686;5.138;2024-01-30T05:01:07;12.37;;;6.33;;
77061;SDS011;65989;51.686;5.138;2024-01-30T05:03:33;11.53;;;6.50;;
77061;SDS011;65989;51.686;5.138;2024-01-30T05:05:59;12.93;;;6.45;;
77061;SDS011;65989;51.686;5.138;2024-01-30T05:08:25;11.37;;;6.63;;
77061;SDS011;65989;51.686;5.138;2024-01-30T05:10:50;11.82;;;7.20;;
77061;SDS011;65989;51.686;5.138;2024-01-30T05:13:15;13.67;;;6.80;;
77061;SDS011;65989;51.686;5.138;2024-01-30T05:15:41;14.33;;;6.37;;
77061;SDS011;65989;51.686;5.138;2024-01-30T05:18:06;14.57;;;6.43;;
77061;SDS011;65989;51.686;5.138;2024-01-30T05:20:31;13.47;;;6.80;;
77061;SDS011;65989;51.686;5.138;2024-01-30T05:22:57;15.37;;;6.30;;
77061;SDS011;65989;51.686;5.138;2024-01-30T05:25:22;14.18;;;6.82;;
77061;SDS011;65989;51.686;5.138;2024-01-30T05:27:48;15.20;;;7.00;;
77061;SDS011;65989;51.686;5.138;2024-01-30T05:30:14;15.13;;;6.88;;
77061;SDS011;65989;51.686;5.138;2024-01-30T05:32:40;16.77;;;6.67;;
77061;SDS011;65989;51.686;5.138;2024-01-30T05:35:05;13.95;;;6.70;;
77061;SDS011;65989;51.686;5.138;2024-01-30T05:37:32;11.27;;;6.40;;
77061;SDS011;65989;51.686;5.138;2024-01-30T05:39:58;12.30;;;6.55;;
77061;SDS011;65989;51.686;5.138;2024-01-30T05:42:24;12.03;;;6.80;;
77061;SDS011;65989;51.686;5.138;2024-01-30T05:44:49;13.68;;;6.97;;
77061;SDS011;65989;51.686;5.138;2024-01-30T05:47:15;10.13;;;6.33;;
77061;SDS011;65989;51.686;5.138;2024-01-30T05:49:40;13.37;;;7.10;;
77061;SDS011;65989;51.686;5.138;2024-01-30T05:52:06;11.15;;;6.35;;
77061;SDS011;65989;51.686;5.138;2024-01-30T05:54:32;14.90;;;7.07;;
77061;SDS011;65989;51.686;5.138;2024-01-30T05:56:57;13.25;;;6.38;;
77061;SDS011;65989;51.686;5.138;2024-01-30T05:59:23;12.53;;;7.07;;
77061;SDS011;65989;51.686;5.138;2024-01-30T06:01:48;12.43;;;6.83;;
77061;SDS011;65989;51.686;5.138;2024-01-30T06:04:14;16.20;;;6.87;;
77061;SDS011;65989;51.686;5.138;2024-01-30T06:06:39;14.85;;;6.75;;
77061;SDS011;65989;51.686;5.138;2024-01-30T06:09:05;13.10;;;7.20;;
77061;SDS011;65989;51.686;5.138;2024-01-30T06:11:30;12.05;;;6.30;;
77061;SDS011;65989;51.686;5.138;2024-01-30T06:13:56;10.33;;;6.13;;
77061;SDS011;65989;51.686;5.138;2024-01-30T06:16:21;14.50;;;6.37;;
77061;SDS011;65989;51.686;5.138;2024-01-30T06:18:47;13.80;;;6.28;;
77061;SDS011;65989;51.686;5.138;2024-01-30T06:21:13;10.40;;;6.13;;
77061;SDS011;65989;51.686;5.138;2024-01-30T06:23:39;11.00;;;6.38;;
77061;SDS011;65989;51.686;5.138;2024-01-30T06:26:05;13.97;;;6.90;;
77061;SDS011;65989;51.686;5.138;2024-01-30T06:28:31;13.55;;;6.40;;
77061;SDS011;65989;51.686;5.138;2024-01-30T06:30:57;12.53;;;6.50;;
77061;SDS011;65989;51.686;5.138;2024-01-30T06:33:22;10.63;;;6.10;;
77061;SDS011;65989;51.686;5.138;2024-01-30T06:35:47;13.97;;;6.37;;
77061;SDS011;65989;51.686;5.138;2024-01-30T06:38:13;11.35;;;6.53;;
77061;SDS011;65989;51.686;5.138;2024-01-30T06:40:40;12.57;;;6.03;;
77061;SDS011;65989;51.686;5.138;2024-01-30T06:43:06;14.02;;;6.38;;
77061;SDS011;65989;51.686;5.138;2024-01-30T06:45:33;12.65;;;6.75;;
77061;SDS011;65989;51.686;5.138;2024-01-30T06:47:59;11.25;;;6.15;;
77061;SDS011;65989;51.686;5.138;2024-01-30T06:50:25;10.33;;;6.20;;
77061;SDS011;65989;51.686;5.138;2024-01-30T06:52:51;15.75;;;6.75;;
77061;SDS011;65989;51.686;5.138;2024-01-30T06:55:16;12.37;;;6.13;;
77061;SDS011;65989;51.686;5.138;2024-01-30T06:57:43;12.32;;;6.10;;
77061;SDS011;65989;51.686;5.138;2024-01-30T07:00:08;14.37;;;6.80;;
77061;SDS011;65989;51.686;5.138;2024-01-30T07:02:34;15.23;;;6.70;;
77061;SDS011;65989;51.686;5.138;2024-01-30T07:05:00;11.67;;;6.83;;
77061;SDS011;65989;51.686;5.138;2024-01-30T07:07:25;13.87;;;6.90;;
77061;SDS011;65989;51.686;5.138;2024-01-30T07:09:51;13.53;;;6.80;;
77061;SDS011;65989;51.686;5.138;2024-01-30T07:12:21;13.63;;;6.75;;
77061;SDS011;65989;51.686;5.138;2024-01-30T07:14:47;13.13;;;6.60;;
77061;SDS011;65989;51.686;5.138;2024-01-30T07:17:13;16.90;;;6.83;;
77061;SDS011;65989;51.686;5.138;2024-01-30T07:19:39;14.50;;;6.85;;
77061;SDS011;65989;51.686;5.138;2024-01-30T07:22:04;15.67;;;6.37;;
77061;SDS011;65989;51.686;5.138;2024-01-30T07:24:29;15.53;;;6.43;;
77061;SDS011;65989;51.686;5.138;2024-01-30T07:26:55;15.97;;;7.20;;
77061;SDS011;65989;51.686;5.138;2024-01-30T07:29:20;10.73;;;5.93;;
77061;SDS011;65989;51.686;5.138;2024-01-30T07:31:46;11.63;;;6.30;;
77061;SDS011;65989;51.686;5.138;2024-01-30T07:34:12;13.67;;;6.80;;
77061;SDS011;65989;51.686;5.138;2024-01-30T07:36:37;12.97;;;6.67;;
77061;SDS011;65989;51.686;5.138;2024-01-30T07:39:03;13.43;;;6.77;;
77061;SDS011;65989;51.686;5.138;2024-01-30T07:41:31;16.23;;;7.90;;
77061;SDS011;65989;51.686;5.138;2024-01-30T07:43:56;13.93;;;6.20;;
77061;SDS011;65989;51.686;5.138;2024-01-30T07:46:22;14.60;;;6.40;;
77061;SDS011;65989;51.686;5.138;2024-01-30T07:48:47;18.20;;;6.57;;
77061;SDS011;65989;51.686;5.138;2024-01-30T07:51:13;15.03;;;6.97;;
77061;SDS011;65989;51.686;5.138;2024-01-30T07:53:38;12.47;;;6.53;;
77061;SDS011;65989;51.686;5.138;2024-01-30T07:56:05;14.80;;;6.85;;
77061;SDS011;65989;51.686;5.138;2024-01-30T07:58:30;17.13;;;6.67;;
77061;SDS011;65989;51.686;5.138;2024-01-30T08:00:56;14.05;;;6.97;;
77061;SDS011;65989;51.686;5.138;2024-01-30T08:03:23;13.43;;;6.67;;
77061;SDS011;65989;51.686;5.138;2024-01-30T08:05:49;13.65;;;6.28;;
77061;SDS011;65989;51.686;5.138;2024-01-30T08:08:14;13.10;;;6.87;;
77061;SDS011;65989;51.686;5.138;2024-01-30T08:10:40;13.77;;;6.83;;
77061;SDS011;65989;51.686;5.138;2024-01-30T08:13:05;14.52;;;6.93;;
77061;SDS011;65989;51.686;5.138;2024-01-30T08:15:30;16.73;;;7.10;;
77061;SDS011;65989;51.686;5.138;2024-01-30T08:17:56;12.73;;;6.60;;
77061;SDS011;65989;51.686;5.138;2024-01-30T08:20:23;13.73;;;6.85;;
77061;SDS011;65989;51.686;5.138;2024-01-30T08:22:49;14.38;;;7.03;;
77061;SDS011;65989;51.686;5.138;2024-01-30T08:25:14;15.70;;;7.00;;
77061;SDS011;65989;51.686;5.138;2024-01-30T08:27:40;16.87;;;6.33;;
77061;SDS011;65989;51.686;5.138;2024-01-30T08:30:06;16.98;;;7.47;;
77061;SDS011;65989;51.686;5.138;2024-01-30T08:32:32;12.90;;;7.00;;
77061;SDS011;65989;51.686;5.138;2024-01-30T08:34:57;16.30;;;6.70;;
77061;SDS011;65989;51.686;5.138;2024-01-30T08:37:23;14.50;;;6.30;;
77061;SDS011;65989;51.686;5.138;2024-01-30T08:39:48;13.30;;;6.00;;
77061;SDS011;65989;51.686;5.138;2024-01-30T08:42:13;15.20;;;6.73;;
77061;SDS011;65989;51.686;5.138;2024-01-30T08:44:39;12.97;;;6.23;;
77061;SDS011;65989;51.686;5.138;2024-01-30T08:47:04;17.07;;;6.57;;
77061;SDS011;65989;51.686;5.138;2024-01-30T08:49:30;15.43;;;6.73;;
77061;SDS011;65989;51.686;5.138;2024-01-30T08:51:56;17.42;;;6.63;;
77061;SDS011;65989;51.686;5.138;2024-01-30T08:54:21;11.40;;;6.47;;
77061;SDS011;65989;51.686;5.138;2024-01-30T08:56:48;14.05;;;6.85;;
77061;SDS011;65989;51.686;5.138;2024-01-30T08:59:13;12.87;;;6.97;;
77061;SDS011;65989;51.686;5.138;2024-01-30T09:01:38;13.82;;;6.18;;
77061;SDS011;65989;51.686;5.138;2024-01-30T09:04:04;14.37;;;6.80;;
77061;SDS011;65989;51.686;5.138;2024-01-30T09:06:29;11.23;;;6.30;;
77061;SDS011;65989;51.686;5.138;2024-01-30T09:08:55;15.17;;;7.27;;
77061;SDS011;65989;51.686;5.138;2024-01-30T09:11:20;14.88;;;6.35;;
77061;SDS011;65989;51.686;5.138;2024-01-30T09:13:45;14.93;;;6.40;;
77061;SDS011;65989;51.686;5.138;2024-01-30T09:16:11;17.43;;;7.07;;
77061;SDS011;65989;51.686;5.138;2024-01-30T09:18:36;17.93;;;6.67;;
77061;SDS011;65989;51.686;5.138;2024-01-30T09:21:01;14.43;;;6.33;;
77061;SDS011;65989;51.686;5.138;2024-01-30T09:23:27;12.20;;;6.30;;
77061;SDS011;65989;51.686;5.138;2024-01-30T09:25:53;13.63;;;6.55;;
77061;SDS011;65989;51.686;5.138;2024-01-30T09:28:19;18.77;;;7.43;;
77061;SDS011;65989;51.686;5.138;2024-01-30T09:30:44;18.90;;;6.87;;
77061;SDS011;65989;51.686;5.138;2024-01-30T09:33:10;18.48;;;7.10;;
77061;SDS011;65989;51.686;5.138;2024-01-30T09:35:35;14.23;;;6.80;;
77061;SDS011;65989;51.686;5.138;2024-01-30T09:38:01;16.25;;;6.78;;
77061;SDS011;65989;51.686;5.138;2024-01-30T09:40:27;16.47;;;6.30;;
77061;SDS011;65989;51.686;5.138;2024-01-30T09:42:53;12.85;;;6.65;;
77061;SDS011;65989;51.686;5.138;2024-01-30T09:45:19;11.83;;;7.10;;
77061;SDS011;65989;51.686;5.138;2024-01-30T09:47:45;13.70;;;6.93;;
77061;SDS011;65989;51.686;5.138;2024-01-30T09:50:11;16.30;;;6.90;;
77061;SDS011;65989;51.686;5.138;2024-01-30T09:52:38;13.70;;;7.00;;
77061;SDS011;65989;51.686;5.138;2024-01-30T09:55:04;18.67;;;7.57;;
77061;SDS011;65989;51.686;5.138;2024-01-30T09:57:31;18.65;;;7.78;;
77061;SDS011;65989;51.686;5.138;2024-01-30T09:59:57;15.80;;;8.05;;
77061;SDS011;65989;51.686;5.138;2024-01-30T10:02:22;17.23;;;7.83;;
77061;SDS011;65989;51.686;5.138;2024-01-30T10:04:48;15.55;;;7.90;;
77061;SDS011;65989;51.686;5.138;2024-01-30T10:07:15;20.00;;;7.45;;
77061;SDS011;65989;51.686;5.138;2024-01-30T10:09:41;17.53;;;7.23;;
77061;SDS011;65989;51.686;5.138;2024-01-30T10:12:07;15.40;;;7.05;;
77061;SDS011;65989;51.686;5.138;2024-01-30T10:14:33;15.00;;;7.33;;
77061;SDS011;65989;51.686;5.138;2024-01-30T10:16:59;16.38;;;7.75;;
77061;SDS011;65989;51.686;5.138;2024-01-30T10:19:26;18.00;;;7.60;;
77061;SDS011;65989;51.686;5.138;2024-01-30T10:21:51;15.67;;;7.67;;
77061;SDS011;65989;51.686;5.138;2024-01-30T10:24:17;17.33;;;7.43;;
77061;SDS011;65989;51.686;5.138;2024-01-30T10:26:45;15.48;;;7.40;;
77061;SDS011;65989;51.686;5.138;2024-01-30T10:29:12;13.30;;;6.93;;
77061;SDS011;65989;51.686;5.138;2024-01-30T10:31:37;14.93;;;7.57;;
77061;SDS011;65989;51.686;5.138;2024-01-30T10:34:02;15.93;;;6.80;;
77061;SDS011;65989;51.686;5.138;2024-01-30T10:36:28;11.60;;;7.82;;
77061;SDS011;65989;51.686;5.138;2024-01-30T10:38:59;15.80;;;6.90;;
77061;SDS011;65989;51.686;5.138;2024-01-30T10:41:27;12.90;;;6.97;;
77061;SDS011;65989;51.686;5.138;2024-01-30T10:44:08;13.32;;;6.78;;
77061;SDS011;65989;51.686;5.138;2024-01-30T10:46:34;12.68;;;7.10;;
77061;SDS011;65989;51.686;5.138;2024-01-30T10:49:02;13.27;;;6.78;;
77061;SDS011;65989;51.686;5.138;2024-01-30T10:51:29;15.00;;;6.80;;
77061;SDS011;65989;51.686;5.138;2024-01-30T10:53:56;14.85;;;7.40;;
77061;SDS011;65989;51.686;5.138;2024-01-30T10:56:22;14.98;;;7.35;;
77061;SDS011;65989;51.686;5.138;2024-01-30T10:58:49;13.52;;;6.90;;
77061;SDS011;65989;51.686;5.138;2024-01-30T11:01:16;12.30;;;6.87;;
77061;SDS011;65989;51.686;5.138;2024-01-30T11:03:42;13.68;;;6.95;;
77061;SDS011;65989;51.686;5.138;2024-01-30T11:06:10;12.55;;;7.00;;
77061;SDS011;65989;51.686;5.138;2024-01-30T11:08:37;11.77;;;6.70;;
77061;SDS011;65989;51.686;5.138;2024-01-30T11:11:02;14.53;;;6.93;;
77061;SDS011;65989;51.686;5.138;2024-01-30T11:13:34;15.90;;;6.15;;
77061;SDS011;65989;51.686;5.138;2024-01-30T11:16:06;12.17;;;6.00;;
77061;SDS011;65989;51.686;5.138;2024-01-30T11:18:32;12.90;;;5.25;;
77061;SDS011;65989;51.686;5.138;2024-01-30T11:20:58;12.95;;;5.75;;
77061;SDS011;65989;51.686;5.138;2024-01-30T11:23:26;9.10;;;4.90;;
77061;SDS011;65989;51.686;5.138;2024-01-30T11:25:53;9.73;;;4.38;;
77061;SDS011;65989;51.686;5.138;2024-01-30T11:28:20;9.52;;;4.47;;
77061;SDS011;65989;51.686;5.138;2024-01-30T11:30:47;8.68;;;4.05;;
77061;SDS011;65989;51.686;5.138;2024-01-30T11:33:16;9.43;;;4.10;;
77061;SDS011;65989;51.686;5.138;2024-01-30T11:35:53;8.67;;;3.83;;
77061;SDS011;65989;51.686;5.138;2024-01-30T11:38:19;6.70;;;2.70;;
77061;SDS011;65989;51.686;5.138;2024-01-30T11:40:44;9.00;;;2.70;;
77061;SDS011;65989;51.686;5.138;2024-01-30T11:43:10;7.13;;;2.25;;
77061;SDS011;65989;51.686;5.138;2024-01-30T11:45:36;6.68;;;2.08;;
77061;SDS011;65989;51.686;5.138;2024-01-30T11:48:02;8.10;;;2.10;;
77061;SDS011;65989;51.686;5.138;2024-01-30T11:50:32;7.50;;;2.05;;
77061;SDS011;65989;51.686;5.138;2024-01-30T11:52:59;5.43;;;1.97;;
77061;SDS011;65989;51.686;5.138;2024-01-30T11:55:24;5.88;;;1.98;;
77061;SDS011;65989;51.686;5.138;2024-01-30T11:57:50;7.90;;;2.00;;
77061;SDS011;65989;51.686;5.138;2024-01-30T12:00:16;6.35;;;1.60;;
77061;SDS011;65989;51.686;5.138;2024-01-30T12:02:43;7.15;;;1.77;;
77061;SDS011;65989;51.686;5.138;2024-01-30T12:05:09;8.75;;;1.90;;
77061;SDS011;65989;51.686;5.138;2024-01-30T12:07:35;8.10;;;1.60;;
77061;SDS011;65989;51.686;5.138;2024-01-30T12:10:01;8.02;;;2.08;;
77061;SDS011;65989;51.686;5.138;2024-01-30T12:12:27;5.60;;;1.73;;
77061;SDS011;65989;51.686;5.138;2024-01-30T12:14:53;8.45;;;1.92;;
77061;SDS011;65989;51.686;5.138;2024-01-30T12:17:25;4.40;;;1.70;;
77061;SDS011;65989;51.686;5.138;2024-01-30T12:20:02;7.68;;;1.70;;
77061;SDS011;65989;51.686;5.138;2024-01-30T12:22:48;5.03;;;1.33;;
77061;SDS011;65989;51.686;5.138;2024-01-30T12:25:15;5.93;;;1.10;;
77061;SDS011;65989;51.686;5.138;2024-01-30T12:27:42;5.78;;;1.60;;
77061;SDS011;65989;51.686;5.138;2024-01-30T12:30:09;5.28;;;1.60;;
77061;SDS011;65989;51.686;5.138;2024-01-30T12:32:36;3.83;;;1.10;;
77061;SDS011;65989;51.686;5.138;2024-01-30T12:35:04;3.28;;;1.05;;
77061;SDS011;65989;51.686;5.138;2024-01-30T12:37:32;3.73;;;1.10;;
77061;SDS011;65989;51.686;5.138;2024-01-30T12:39:58;3.10;;;1.10;;
77061;SDS011;65989;51.686;5.138;2024-01-30T12:42:24;3.47;;;1.02;;
77061;SDS011;65989;51.686;5.138;2024-01-30T12:44:52;3.73;;;1.13;;
77061;SDS011;65989;51.686;5.138;2024-01-30T12:47:17;9.10;;;1.10;;
77061;SDS011;65989;51.686;5.138;2024-01-30T12:49:43;6.70;;;1.10;;
77061;SDS011;65989;51.686;5.138;2024-01-30T12:52:09;4.10;;;1.00;;
77061;SDS011;65989;51.686;5.138;2024-01-30T12:54:36;3.93;;;0.93;;
77061;SDS011;65989;51.686;5.138;2024-01-30T12:57:02;3.10;;;1.00;;
77061;SDS011;65989;51.686;5.138;2024-01-30T12:59:27;4.03;;;1.27;;
77061;SDS011;65989;51.686;5.138;2024-01-30T13:01:53;4.47;;;1.10;;
77061;SDS011;65989;51.686;5.138;2024-01-30T13:04:18;8.13;;;1.30;;
77061;SDS011;65989;51.686;5.138;2024-01-30T13:06:44;4.60;;;1.20;;
77061;SDS011;65989;51.686;5.138;2024-01-30T13:09:09;4.47;;;1.20;;
77061;SDS011;65989;51.686;5.138;2024-01-30T13:11:34;3.40;;;1.00;;
77061;SDS011;65989;51.686;5.138;2024-01-30T13:14:00;8.55;;;1.90;;
77061;SDS011;65989;51.686;5.138;2024-01-30T13:16:26;7.73;;;2.67;;
77061;SDS011;65989;51.686;5.138;2024-01-30T13:18:51;9.50;;;2.77;;
77061;SDS011;65989;51.686;5.138;2024-01-30T13:21:17;12.88;;;3.30;;
77061;SDS011;65989;51.686;5.138;2024-01-30T13:23:42;7.80;;;3.03;;
77061;SDS011;65989;51.686;5.138;2024-01-30T13:26:08;12.23;;;2.93;;
77061;SDS011;65989;51.686;5.138;2024-01-30T13:28:33;9.73;;;3.03;;
77061;SDS011;65989;51.686;5.138;2024-01-30T13:30:59;9.50;;;2.70;;
77061;SDS011;65989;51.686;5.138;2024-01-30T13:33:24;10.40;;;2.70;;
77061;SDS011;65989;51.686;5.138;2024-01-30T13:35:51;11.65;;;2.90;;
77061;SDS011;65989;51.686;5.138;2024-01-30T13:38:16;12.07;;;2.97;;
77061;SDS011;65989;51.686;5.138;2024-01-30T13:40:42;8.70;;;3.70;;
77061;SDS011;65989;51.686;5.138;2024-01-30T13:43:07;9.80;;;3.33;;
77061;SDS011;65989;51.686;5.138;2024-01-30T13:45:33;16.33;;;3.53;;
77061;SDS011;65989;51.686;5.138;2024-01-30T13:47:58;10.80;;;3.72;;
77061;SDS011;65989;51.686;5.138;2024-01-30T13:50:24;16.37;;;4.00;;
77061;SDS011;65989;51.686;5.138;2024-01-30T13:52:49;8.70;;;3.60;;
77061;SDS011;65989;51.686;5.138;2024-01-30T13:55:15;12.20;;;3.60;;
77061;SDS011;65989;51.686;5.138;2024-01-30T13:57:40;12.27;;;3.33;;
77061;SDS011;65989;51.686;5.138;2024-01-30T14:00:06;11.87;;;3.07;;
77061;SDS011;65989;51.686;5.138;2024-01-30T14:02:32;10.57;;;3.47;;
77061;SDS011;65989;51.686;5.138;2024-01-30T14:04:58;8.38;;;2.80;;
77061;SDS011;65989;51.686;5.138;2024-01-30T14:07:23;11.57;;;3.23;;
77061;SDS011;65989;51.686;5.138;2024-01-30T14:09:49;9.13;;;3.27;;
77061;SDS011;65989;51.686;5.138;2024-01-30T14:12:15;7.15;;;3.00;;
77061;SDS011;65989;51.686;5.138;2024-01-30T14:14:40;7.83;;;2.90;;
77061;SDS011;65989;51.686;5.138;2024-01-30T14:17:06;12.23;;;3.95;;
77061;SDS011;65989;51.686;5.138;2024-01-30T14:19:33;7.43;;;2.80;;
77061;SDS011;65989;51.686;5.138;2024-01-30T14:21:59;6.25;;;2.40;;
77061;SDS011;65989;51.686;5.138;2024-01-30T14:24:24;9.37;;;2.53;;
77061;SDS011;65989;51.686;5.138;2024-01-30T14:26:50;8.03;;;2.50;;
77061;SDS011;65989;51.686;5.138;2024-01-30T14:29:16;7.45;;;2.90;;